»·PEaware :: DCM205 KSAN-KSBA

DCM205 :: KSAN-KSBA

FLIGHT INFORMATION

Flight Status: Arrived
Operator:
DotCom
More flights by this operator :: More flights under this callsign
Pilot: Chris S. (2433)
Aircraft: AIRBUS A320
(A320)
More flights by this aircraft type
Origin: KSAN San Diego Intl-Lindbergh
United States
Destination: KSBA Santa Barbara Mun
United States
More flights between these airports :: More routes between these airports
Route: +CWARD2 CWARD AVOLS V208 VTU VTU282 KWANG
File this flight plan on PilotEdge
Remarks:
Altitude:
(Current/Filed)
24,000ft
Speed:
(Current/Filed)
450kts
Departed: 08-Jul-20 08:52 AM
Arrived: 08-Jul-20 09:30 AM
Distance/Time
Traveled:
168nm/0:38
Distance/Time
To Go:
Arrived

Flight Plot

Page will automatically refresh every two minutes.

Flight plan parsing failed; only flown route is shown


Map Options




Map Legend


Flown Route
Filed Route
Departure Airport
Arrival Airport
Navaid (VOR, NDB)
Fix

Horizontal Profiles

Position Reports

Time Latitude Longitude Heading Altitude Ground
Speed
08-Jul-20 08:28 32.732307 -117.195907 307 29ft 0kts
08-Jul-20 08:29 32.732307 -117.195907 307 29ft 0kts
08-Jul-20 08:30 32.732307 -117.195907 307 29ft 0kts
08-Jul-20 08:31 32.732307 -117.195907 307 29ft 0kts
08-Jul-20 08:32 32.732307 -117.195907 307 29ft 0kts
08-Jul-20 08:33 32.732307 -117.195907 307 29ft 0kts
08-Jul-20 08:34 32.732307 -117.195907 307 29ft 0kts
08-Jul-20 08:35 32.732307 -117.195907 307 29ft 0kts
08-Jul-20 08:36 32.732307 -117.195907 307 29ft 0kts
08-Jul-20 08:37 32.732307 -117.195907 307 29ft 0kts
08-Jul-20 08:38 32.732307 -117.195907 307 29ft 0kts
08-Jul-20 08:39 32.732307 -117.195907 307 29ft 0kts
08-Jul-20 08:40 32.732307 -117.195907 307 29ft 0kts
08-Jul-20 08:41 32.732098 -117.195452 285 29ft 2kts
08-Jul-20 08:42 32.731963 -117.194975 19 29ft 0kts
08-Jul-20 08:43 32.731963 -117.194974 19 29ft 0kts
08-Jul-20 08:44 32.732380 -117.194761 28 29ft 7kts
08-Jul-20 08:45 32.733266 -117.192741 106 29ft 8kts
08-Jul-20 08:46 32.732324 -117.188831 105 29ft 15kts
08-Jul-20 08:47 32.730954 -117.183110 105 29ft 19kts
08-Jul-20 08:48 32.729556 -117.177267 96 29ft 13kts
08-Jul-20 08:49 32.730334 -117.176552 263 29ft 0kts
08-Jul-20 08:50 32.730379 -117.176999 276 29ft 2kts
08-Jul-20 08:51 32.738296 -117.205869 292 520ft 164kts
08-Jul-20 08:52 32.763319 -117.254648 303 2292ft 192kts
08-Jul-20 08:53 32.797474 -117.314943 304 2997ft 248kts
08-Jul-20 08:54 32.842090 -117.384095 306 4237ft 269kts
08-Jul-20 08:55 32.888429 -117.456151 306 5855ft 282kts
08-Jul-20 08:56 32.936502 -117.531003 305 8688ft 290kts
08-Jul-20 08:57 32.986231 -117.608497 305 9978ft 296kts
08-Jul-20 08:58 33.036156 -117.686481 305 9983ft 296kts
08-Jul-20 08:59 33.091726 -117.758959 318 9986ft 298kts
08-Jul-20 09:00 33.133353 -117.842054 293 9988ft 293kts
08-Jul-20 09:01 33.169709 -117.929166 295 9993ft 293kts
08-Jul-20 09:02 33.206361 -118.016238 295 9997ft 293kts
08-Jul-20 09:03 33.242888 -118.103271 295 10001ft 293kts
08-Jul-20 09:04 33.279276 -118.190182 295 10004ft 293kts
08-Jul-20 09:06 33.315691 -118.277374 295 10007ft 293kts
08-Jul-20 09:07 33.352090 -118.364762 295 10003ft 293kts
08-Jul-20 09:08 33.393749 -118.447975 308 10003ft 294kts
08-Jul-20 09:09 33.447134 -118.522246 308 10001ft 294kts
08-Jul-20 09:10 33.499635 -118.597270 308 9997ft 294kts
08-Jul-20 09:11 33.552357 -118.672619 308 9991ft 294kts
08-Jul-20 09:12 33.604778 -118.747688 308 9987ft 293kts
08-Jul-20 09:13 33.659549 -118.820123 317 9999ft 294kts
08-Jul-20 09:14 33.721564 -118.884469 317 10012ft 295kts
08-Jul-20 09:15 33.783064 -118.949933 317 10011ft 294kts
08-Jul-20 09:16 33.844345 -119.015161 317 10005ft 294kts
08-Jul-20 09:17 33.905734 -119.080619 317 10003ft 294kts
08-Jul-20 09:18 33.968199 -119.144559 316 9948ft 294kts
08-Jul-20 09:19 34.026871 -119.212844 316 9992ft 293kts
08-Jul-20 09:20 34.088549 -119.277397 319 9684ft 292kts
08-Jul-20 09:21 34.150577 -119.340353 319 9136ft 291kts
08-Jul-20 09:22 34.210596 -119.405807 316 7599ft 287kts
08-Jul-20 09:22 34.259009 -119.459808 317 6115ft 282kts
08-Jul-20 09:24 34.322120 -119.537219 294 3933ft 244kts
08-Jul-20 09:25 34.344454 -119.610586 296 4021ft 234kts
08-Jul-20 09:25 34.370390 -119.667528 300 3331ft 228kts
08-Jul-20 09:27 34.409202 -119.732319 307 3162ft 154kts
08-Jul-20 09:27 34.426575 -119.769391 287 1881ft 159kts
08-Jul-20 09:28 34.428203 -119.822518 266 286ft 153kts
08-Jul-20 09:30 34.427694 -119.853484 188 24ft 5kts

Navigation Log

Ident Type
Flight plan parsing failed, navigation log unavailable